PWSweather.com
Personal Weather Stations
Station Observations
KVAGLENALL
West Henrico, Glen Allen, VA 23060-6503

West HenricoGlen Allen, VA 23060-6503

Lat: 37.6554, Lon: -77.5693

Elevation: 273

Station Type: Davis Vantage Pro II

www.glenallenweather.com

High Low Average
Temperature 92.1°F33.4°C 72.9°F22.7°C 81.5°F27.5°C
Dew Point 77.9°F25.5°C 68.7°F20.4°C 72.7°F22.6°C
Winds 9.0 mph 14.5 kmh Calm Calm 3.0 mph SSW4.8 kmh SSW
Wind Gusts 10.1 mph16.3 kmh 1.0 mph1.6 kmh 5.0 mph8.0 kmh
Humidity 89% 60% 76%
Pressure 30.00 in1015.9 mb 29.92 in1013.2 mb -
Precipitation 0.00 in0.0 mm - -
Hour Temp Dew Point Humidity Winds Wind Gusts Pressure Precip Precip Rate Daily Precip Total
12:00 AM 78.6°F25.9°C 71.5°F21.9°C 79% 6.0 mph SSW9.7 kmh SSW 9.1 mph14.6 kmh 29.94 in1013.9 mb 0.00 in0.0 mm 0.00 in0.0 mm 0.00 in0.0 mm
01:00 AM 77.3°F25.2°C 71.0°F21.7°C 81% 2.0 mph SSW3.2 kmh SSW 7.1 mph11.4 kmh 29.94 in1013.9 mb 0.00 in0.0 mm 0.00 in0.0 mm 0.00 in0.0 mm
02:00 AM 76.3°F24.6°C 70.4°F21.3°C 82% 7.0 mph S11.3 kmh S 7.1 mph11.4 kmh 29.94 in1013.9 mb 0.00 in0.0 mm 0.00 in0.0 mm 0.00 in0.0 mm
03:00 AM 76.1°F24.5°C 70.2°F21.2°C 82% 6.0 mph S9.7 kmh S 7.1 mph11.4 kmh 29.92 in1013.2 mb 0.00 in0.0 mm 0.00 in0.0 mm 0.00 in0.0 mm
04:00 AM 75.5°F24.2°C 69.6°F20.9°C 82% 5.0 mph SW8.0 kmh SW 7.1 mph11.4 kmh 29.93 in1013.5 mb 0.00 in0.0 mm 0.00 in0.0 mm 0.00 in0.0 mm
05:00 AM 73.4°F23.0°C 68.9°F20.5°C 86% 5.0 mph SSW8.0 kmh SSW 5.1 mph8.2 kmh 29.94 in1013.9 mb 0.00 in0.0 mm 0.00 in0.0 mm 0.00 in0.0 mm
06:00 AM 73.3°F22.9°C 69.2°F20.7°C 87% 3.0 mph S4.8 kmh S 7.1 mph11.4 kmh 29.94 in1013.9 mb 0.00 in0.0 mm 0.00 in0.0 mm 0.00 in0.0 mm
07:00 AM 72.9°F22.7°C 69.4°F20.8°C 89% 1.0 mph SW1.6 kmh SW 3.0 mph4.8 kmh 29.97 in1014.9 mb 0.00 in0.0 mm 0.00 in0.0 mm 0.00 in0.0 mm
08:00 AM 76.8°F24.9°C 71.9°F22.2°C 85% 1.0 mph SW1.6 kmh SW 3.0 mph4.8 kmh 29.97 in1014.9 mb 0.00 in0.0 mm 0.00 in0.0 mm 0.00 in0.0 mm
09:00 AM 82.2°F27.9°C 75.1°F23.9°C 79% 1.0 mph SW1.6 kmh SW 3.0 mph4.8 kmh 29.98 in1015.2 mb 0.00 in0.0 mm 0.00 in0.0 mm 0.00 in0.0 mm
10:00 AM 86.0°F30.0°C 76.4°F24.7°C 73% 4.0 mph SSW6.4 kmh SSW 4.0 mph6.4 kmh 29.99 in1015.6 mb 0.00 in0.0 mm 0.00 in0.0 mm 0.00 in0.0 mm
11:00 AM 88.5°F31.4°C 77.1°F25.1°C 69% 4.0 mph SW6.4 kmh SW 5.1 mph8.2 kmh 29.99 in1015.6 mb 0.00 in0.0 mm 0.00 in0.0 mm 0.00 in0.0 mm
12:00 PM 89.2°F31.8°C 76.9°F24.9°C 67% 6.0 mph S9.7 kmh S 8.1 mph13.0 kmh 30.00 in1015.9 mb 0.00 in0.0 mm 0.00 in0.0 mm 0.00 in0.0 mm
01:00 PM 90.7°F32.6°C 76.8°F24.9°C 64% 3.0 mph SW4.8 kmh SW 6.1 mph9.8 kmh 29.99 in1015.6 mb 0.00 in0.0 mm 0.00 in0.0 mm 0.00 in0.0 mm
02:00 PM 90.9°F32.7°C 77.9°F25.5°C 66% Calm Calm 2.0 mph3.2 kmh 29.99 in1015.6 mb 0.00 in0.0 mm 0.00 in0.0 mm 0.00 in0.0 mm
03:00 PM 91.9°F33.3°C 76.0°F24.4°C 60% 6.0 mph SW9.7 kmh SW 9.1 mph14.6 kmh 29.98 in1015.2 mb 0.00 in0.0 mm 0.00 in0.0 mm 0.00 in0.0 mm
04:00 PM 92.1°F33.4°C 77.7°F25.4°C 63% 9.0 mph SSW14.5 kmh SSW 10.1 mph16.3 kmh 29.96 in1014.6 mb 0.00 in0.0 mm 0.00 in0.0 mm 0.00 in0.0 mm
05:00 PM 92.1°F33.4°C 76.2°F24.6°C 60% 4.0 mph SW6.4 kmh SW 6.1 mph9.8 kmh 29.94 in1013.9 mb 0.00 in0.0 mm 0.00 in0.0 mm 0.00 in0.0 mm
06:00 PM 87.6°F30.9°C 76.2°F24.6°C 69% 3.0 mph SW4.8 kmh SW 7.1 mph11.4 kmh 29.95 in1014.2 mb 0.00 in0.0 mm 0.00 in0.0 mm 0.00 in0.0 mm
07:00 PM 82.0°F27.8°C 70.8°F21.6°C 69% 3.0 mph N4.8 kmh N 5.1 mph8.2 kmh 29.98 in1015.2 mb 0.00 in0.0 mm 0.00 in0.0 mm 0.00 in0.0 mm
08:00 PM 78.9°F26.1°C 69.9°F21.1°C 74% Calm Calm 1.0 mph1.6 kmh 29.95 in1014.2 mb 0.00 in0.0 mm 0.00 in0.0 mm 0.00 in0.0 mm
09:00 PM 76.8°F24.9°C 68.7°F20.4°C 76% 1.0 mph SSW1.6 kmh SSW 1.0 mph1.6 kmh 29.97 in1014.9 mb 0.00 in0.0 mm 0.00 in0.0 mm 0.00 in0.0 mm
10:00 PM 75.6°F24.2°C 69.0°F20.6°C 80% Calm Calm 1.0 mph1.6 kmh 29.99 in1015.6 mb 0.00 in0.0 mm 0.00 in0.0 mm 0.00 in0.0 mm
11:00 PM 75.0°F23.9°C 70.2°F21.2°C 85% 3.0 mph SSW4.8 kmh SSW 3.0 mph4.8 kmh 30.00 in1015.9 mb 0.00 in0.0 mm 0.00 in0.0 mm 0.00 in0.0 mm